Time;durP1;ratioP1;P1;durP2;ratioP2;P2;SDS_P1;SDS_P2;PMS_P1;PMS_P2;Temp;Humidity;BMP_temperature;BMP_pressure;BME280_temperature;BME280_humidity;BME280_pressure;Samples;Min_cycle;Max_cycle;Signal;HPM_P1;HPM_P2
2021/07/17 00:02:56;;;;;;;47.17;36.73;;;;;;;23.08;72.79;98786.27;2281422;78;20942;-78
2021/07/17 00:05:57;;;;;;;25.52;17.85;;;;;;;23.27;72.83;98787.73;2281511;78;20937;-79
2021/07/17 00:08:57;;;;;;;23.02;19.87;;;;;;;23.39;72.27;98784.57;2281423;78;20946;-78
2021/07/17 00:11:58;;;;;;;69.92;60.78;;;;;;;23.13;71.42;98782.96;2281389;78;20934;-78
2021/07/17 00:14:58;;;;;;;21.10;18.23;;;;;;;23.10;72.50;98781.28;2281487;78;21298;-78
2021/07/17 00:17:59;;;;;;;21.68;17.80;;;;;;;22.85;71.70;98777.86;2281457;78;20945;-78
2021/07/17 00:20:59;;;;;;;21.05;16.27;;;;;;;22.46;72.24;98787.69;2255374;77;20952;-78
2021/07/17 00:24:00;;;;;;;18.50;16.12;;;;;;;22.14;73.30;98791.52;2249410;78;20965;-78
2021/07/17 00:27:00;;;;;;;17.05;15.25;;;;;;;21.69;74.68;98787.77;2249520;78;20944;-78
2021/07/17 00:30:01;;;;;;;17.48;15.63;;;;;;;21.33;75.11;98784.06;2249129;78;20960;-78
2021/07/17 00:33:01;;;;;;;18.67;16.48;;;;;;;21.07;76.45;98780.01;2249390;79;20988;-79
2021/07/17 00:36:02;;;;;;;19.07;16.90;;;;;;;20.83;78.92;98775.88;2249871;79;20944;-79
2021/07/17 00:39:03;;;;;;;22.32;19.15;;;;;;;20.66;78.89;98769.72;2249393;78;21252;-78
2021/07/17 00:42:03;;;;;;;24.02;17.40;;;;;;;20.56;78.91;98770.05;2249407;79;21255;-78
2021/07/17 00:45:04;;;;;;;23.57;19.23;;;;;;;20.50;80.54;98772.88;2249437;79;20958;-78
2021/07/17 00:48:04;;;;;;;22.25;18.42;;;;;;;20.34;81.50;98762.68;2249371;78;20943;-78
2021/07/17 00:51:05;;;;;;;21.60;18.75;;;;;;;20.21;80.90;98778.52;2249300;78;21330;-78
2021/07/17 00:54:05;;;;;;;19.17;17.15;;;;;;;20.38;81.26;98791.30;2249559;78;21292;-78
2021/07/17 00:57:06;;;;;;;21.73;16.73;;;;;;;20.84;82.21;98800.62;2249337;79;20944;-78
2021/07/17 01:00:06;;;;;;;19.23;16.15;;;;;;;21.49;80.92;98799.03;2249325;79;20905;-79
2021/07/17 01:03:07;;;;;;;20.77;15.80;;;;;;;21.91;79.79;98800.27;2249319;79;20988;-78
2021/07/17 01:06:08;;;;;;;18.40;15.15;;;;;;;22.19;78.57;98806.84;2249468;79;21264;-78
2021/07/17 01:09:08;;;;;;;20.25;15.28;;;;;;;22.35;77.62;98811.15;2249452;79;20952;-78
2021/07/17 01:12:09;;;;;;;18.32;14.47;;;;;;;22.21;76.02;98822.28;2249406;78;20932;-78
2021/07/17 01:15:09;;;;;;;23.98;17.80;;;;;;;22.00;75.47;98819.02;2249304;78;20904;-78
2021/07/17 01:18:10;;;;;;;19.32;17.25;;;;;;;21.47;75.93;98824.31;2249383;78;20912;-78
2021/07/17 01:21:10;;;;;;;30.52;23.32;;;;;;;21.04;77.21;98819.91;2274442;77;21334;-78
2021/07/17 01:24:11;;;;;;;31.40;25.23;;;;;;;21.41;78.82;98815.67;2281276;78;21373;-78
2021/07/17 01:27:11;;;;;;;27.25;22.50;;;;;;;21.83;77.82;98812.08;2281905;78;21080;-78
2021/07/17 01:30:12;;;;;;;20.35;17.48;;;;;;;22.14;77.20;98815.91;2281574;78;20917;-77
2021/07/17 01:33:13;;;;;;;22.93;18.45;;;;;;;21.99;74.83;98809.30;2281402;78;20972;-78
2021/07/17 01:36:13;;;;;;;29.80;26.10;;;;;;;21.33;75.13;98807.09;2281580;78;20911;-79
2021/07/17 01:39:14;;;;;;;27.02;22.52;;;;;;;20.88;76.72;98807.58;2281660;78;21280;-78
2021/07/17 01:42:14;;;;;;;19.77;15.63;;;;;;;20.86;77.26;98815.58;2281621;78;20878;-78
2021/07/17 01:45:15;;;;;;;18.87;16.85;;;;;;;20.90;76.60;98811.05;2281617;78;20883;-78
2021/07/17 01:48:15;;;;;;;22.67;18.32;;;;;;;20.54;77.85;98807.67;2281516;78;20950;-78
2021/07/17 01:51:16;;;;;;;20.37;18.27;;;;;;;20.21;78.63;98801.50;2281733;78;21302;-78
2021/07/17 01:54:16;;;;;;;25.48;19.17;;;;;;;20.09;79.45;98805.36;2281264;78;20970;-79
2021/07/17 01:57:17;;;;;;;23.80;17.90;;;;;;;20.32;81.60;98816.20;2281566;78;20882;-79
2021/07/17 02:00:17;;;;;;;20.77;17.55;;;;;;;20.62;79.41;98809.64;2282103;78;21258;-79
2021/07/17 02:03:18;;;;;;;21.55;17.80;;;;;;;20.59;78.45;98819.02;2278504;78;20987;-79
2021/07/17 02:06:18;;;;;;;21.82;17.05;;;;;;;20.27;78.84;98808.83;2276520;78;20925;-79
2021/07/17 02:09:19;;;;;;;19.30;17.20;;;;;;;20.60;80.97;98816.31;2281174;78;20939;-78
2021/07/17 02:12:19;;;;;;;22.87;17.15;;;;;;;21.22;80.61;98818.02;2281568;78;20933;-78
2021/07/17 02:15:20;;;;;;;25.08;21.23;;;;;;;21.71;79.14;98814.69;2281648;78;21269;-78
2021/07/17 02:18:20;;;;;;;21.62;17.70;;;;;;;22.08;77.75;98810.34;2281487;78;20898;-77
2021/07/17 02:21:21;;;;;;;20.45;15.93;;;;;;;22.21;76.59;98805.00;2289093;77;20967;-78
2021/07/17 02:24:21;;;;;;;22.87;17.05;;;;;;;22.29;74.64;98798.08;2291195;78;20943;-77
2021/07/17 02:27:22;;;;;;;17.10;14.95;;;;;;;21.49;74.24;98801.23;2291206;78;20905;-78
2021/07/17 02:30:22;;;;;;;17.37;15.58;;;;;;;21.06;75.81;98795.52;2291395;78;21394;-77
2021/07/17 02:33:23;;;;;;;18.65;16.07;;;;;;;21.35;77.68;98798.16;2291920;77;21047;-77
2021/07/17 02:36:24;;;;;;;17.15;15.05;;;;;;;21.52;75.77;98796.27;2298898;77;20906;-78
2021/07/17 02:39:24;;;;;;;20.27;15.58;;;;;;;21.08;76.03;98800.33;2298649;77;20918;-78
2021/07/17 02:42:25;;;;;;;16.05;14.35;;;;;;;21.26;77.46;98800.64;2298617;77;20906;-78
2021/07/17 02:45:25;;;;;;;35.05;28.23;;;;;;;21.71;76.75;98805.39;2298673;77;20925;-78
2021/07/17 02:48:26;;;;;;;67.62;58.55;;;;;;;21.79;75.06;98802.48;2298586;77;20910;-78
2021/07/17 02:51:29;;;;;;;28.87;22.85;;;;;;;21.89;75.14;98797.26;2292752;77;21110;-78
2021/07/17 02:54:29;;;;;;;34.10;27.07;;;;;;;22.09;74.75;98795.27;2291212;78;21335;-78
2021/07/17 02:57:30;;;;;;;25.32;19.27;;;;;;;22.28;73.88;98801.66;2291164;78;20909;-78
2021/07/17 03:00:33;;;;;;;14.87;13.35;;;;;;;22.44;73.06;98804.63;2291208;78;20919;-78
2021/07/17 03:03:32;;;;;;;14.75;13.20;;;;;;;22.54;72.36;98806.92;2290849;77;20995;-78
2021/07/17 03:06:33;;;;;;;18.65;15.08;;;;;;;22.56;71.43;98802.41;2290940;77;20904;-79
2021/07/17 03:09:34;;;;;;;24.00;15.35;;;;;;;22.41;71.42;98800.75;2291298;78;20901;-78
2021/07/17 03:12:34;;;;;;;45.80;36.23;;;;;;;22.18;71.68;98804.23;2291239;78;20904;-78
2021/07/17 03:15:35;;;;;;;19.07;16.48;;;;;;;22.36;72.25;98806.70;2291391;78;20940;-78
2021/07/17 03:18:35;;;;;;;15.30;13.83;;;;;;;22.62;71.55;98800.45;2291281;78;20952;-78
2021/07/17 03:21:36;;;;;;;18.15;14.18;;;;;;;22.82;70.46;98805.45;2283341;78;21302;-78
2021/07/17 03:24:36;;;;;;;18.48;13.62;;;;;;;22.88;69.94;98801.69;2281514;78;20914;-79
2021/07/17 03:27:37;;;;;;;23.87;15.50;;;;;;;22.76;69.47;98808.31;2281769;78;20902;-79
2021/07/17 03:30:37;;;;;;;17.62;13.70;;;;;;;22.63;69.40;98804.37;2281496;78;21337;-79
2021/07/17 03:33:38;;;;;;;20.82;14.00;;;;;;;22.59;69.40;98809.41;2281574;78;20942;-79
2021/07/17 03:36:38;;;;;;;20.23;13.68;;;;;;;22.50;69.31;98809.26;2281386;78;20922;-78
2021/07/17 03:39:39;;;;;;;16.82;13.00;;;;;;;22.55;69.75;98813.11;2281493;78;21111;-79
2021/07/17 03:42:39;;;;;;;15.10;13.70;;;;;;;22.56;69.34;98812.19;2281534;78;20917;-78
2021/07/17 03:45:40;;;;;;;43.33;16.77;;;;;;;22.57;69.13;98813.92;2280849;78;21029;-78
2021/07/17 03:48:40;;;;;;;20.02;15.80;;;;;;;22.56;69.10;98812.19;2281431;78;21316;-79
2021/07/17 03:51:41;;;;;;;33.50;23.98;;;;;;;22.58;69.35;98801.03;2281514;78;20930;-78
2021/07/17 03:54:41;;;;;;;22.22;17.10;;;;;;;22.21;69.37;98797.48;2281974;78;20948;-79
2021/07/17 03:57:42;;;;;;;18.12;16.42;;;;;;;21.44;71.03;98796.98;2281691;78;20941;-78
2021/07/17 04:00:42;;;;;;;20.75;16.27;;;;;;;20.93;72.79;98805.64;2281675;78;20871;-78
2021/07/17 04:03:46;;;;;;;19.15;16.62;;;;;;;20.63;73.53;98799.45;2281549;78;21274;-79
2021/07/17 04:06:45;;;;;;;22.37;18.15;;;;;;;20.55;74.40;98800.12;2281472;78;20949;-79
2021/07/17 04:09:46;;;;;;;26.73;18.73;;;;;;;20.47;74.93;98806.11;2281736;78;20951;-79
2021/07/17 04:12:46;;;;;;;26.77;21.10;;;;;;;20.35;75.89;98792.71;2281208;78;21321;-78
2021/07/17 04:15:47;;;;;;;23.45;18.12;;;;;;;20.33;76.29;98798.05;2281822;78;20930;-79
2021/07/17 04:18:47;;;;;;;24.37;19.62;;;;;;;20.39;76.75;98794.81;2281862;78;20875;-79
2021/07/17 04:21:48;;;;;;;20.50;18.05;;;;;;;20.40;77.74;98798.78;2256436;77;20955;-79
2021/07/17 04:24:49;;;;;;;21.00;18.75;;;;;;;20.42;77.61;98796.95;2249531;79;20944;-79
2021/07/17 04:27:49;;;;;;;23.50;19.62;;;;;;;20.46;77.70;98799.94;2249515;78;20932;-79
2021/07/17 04:30:50;;;;;;;39.98;18.90;;;;;;;20.49;78.65;98802.95;2249416;78;20972;-80
2021/07/17 04:33:50;;;;;;;22.60;19.30;;;;;;;20.56;78.35;98807.16;2249302;79;20956;-79
2021/07/17 04:36:51;;;;;;;22.82;17.85;;;;;;;20.76;77.84;98812.75;2249292;78;20881;-79
2021/07/17 04:39:51;;;;;;;27.20;19.25;;;;;;;20.93;77.67;98814.48;2249314;79;21332;-80
2021/07/17 04:42:52;;;;;;;27.42;20.30;;;;;;;21.02;77.41;98812.00;2249402;79;21248;-80
2021/07/17 04:45:52;;;;;;;20.75;18.52;;;;;;;21.22;77.38;98805.64;2249542;78;20884;-79
2021/07/17 04:48:53;;;;;;;23.60;19.92;;;;;;;21.24;77.16;98812.23;2249470;78;20939;-79
2021/07/17 04:51:54;;;;;;;29.27;20.10;;;;;;;21.20;77.16;98811.42;2249284;79;20968;-79
2021/07/17 04:54:54;;;;;;;30.35;20.97;;;;;;;21.21;77.52;98818.93;2250106;79;20912;-79
2021/07/17 04:57:54;;;;;;;20.80;18.70;;;;;;;21.30;77.43;98814.69;2249663;78;21331;-79
2021/07/17 05:00:55;;;;;;;24.00;18.40;;;;;;;21.37;77.22;98819.34;2249516;78;20877;-79
2021/07/17 05:03:55;;;;;;;21.97;18.05;;;;;;;21.52;77.13;98825.03;2249486;78;20955;-80
2021/07/17 05:06:56;;;;;;;20.62;15.78;;;;;;;21.58;77.17;98826.16;2250119;79;20963;-78
2021/07/17 05:09:56;;;;;;;19.10;16.42;;;;;;;21.67;76.98;98818.80;2250346;79;20948;-79
2021/07/17 05:12:57;;;;;;;19.65;16.67;;;;;;;21.82;76.50;98818.31;2251316;79;21292;-80
2021/07/17 05:15:57;;;;;;;20.45;17.15;;;;;;;21.96;76.33;98814.73;2251221;79;20956;-81
2021/07/17 05:18:58;;;;;;;21.50;15.08;;;;;;;22.06;76.07;98804.22;2251064;79;20917;-82
2021/07/17 05:21:59;;;;;;;20.00;16.25;;;;;;;22.24;75.78;98809.34;2281553;78;21000;-82
2021/07/17 05:24:59;;;;;;;20.05;16.05;;;;;;;22.19;75.65;98805.98;2292209;78;20869;-81
2021/07/17 05:28:00;;;;;;;19.40;16.10;;;;;;;22.22;75.65;98806.73;2291936;78;20877;-81
2021/07/17 05:31:00;;;;;;;19.10;16.30;;;;;;;22.34;75.08;98802.77;2291768;78;20974;-83
2021/07/17 05:34:01;;;;;;;20.40;15.30;;;;;;;22.45;74.92;98798.38;2292337;77;20932;-82
2021/07/17 05:37:01;;;;;;;19.48;15.50;;;;;;;22.52;74.91;98802.09;2299252;77;20901;-81
2021/07/17 05:40:02;;;;;;;15.38;12.98;;;;;;;22.65;74.35;98799.88;2295972;77;20896;-82
2021/07/17 05:43:02;;;;;;;15.30;13.70;;;;;;;22.77;73.73;98802.53;2291982;78;20913;-82
2021/07/17 05:46:02;;;;;;;14.60;13.13;;;;;;;22.87;73.16;98800.82;2292016;78;20912;-80
2021/07/17 05:49:03;;;;;;;14.85;13.25;;;;;;;22.92;73.21;98801.11;2292241;78;20873;-80
2021/07/17 05:52:03;;;;;;;17.15;12.43;;;;;;;23.15;72.80;98797.95;2292104;78;21277;-80
2021/07/17 05:55:04;;;;;;;15.48;12.25;;;;;;;23.29;72.56;98799.19;2292253;78;20873;-81
2021/07/17 05:58:04;;;;;;;16.97;11.28;;;;;;;23.51;72.11;98809.41;2292176;78;20900;-81
2021/07/17 06:01:05;;;;;;;13.95;10.82;;;;;;;23.64;70.97;98804.47;2292519;78;20908;-82
2021/07/17 06:04:07;;;;;;;17.90;11.00;;;;;;;23.66;70.56;98805.27;2292826;77;20916;-82
2021/07/17 06:07:08;;;;;;;15.78;10.35;;;;;;;23.68;69.99;98806.08;2294077;77;20956;-83
2021/07/17 06:13:11;;;;;;;14.60;11.22;;;;;;;23.81;69.57;98793.97;2269383;78;20919;-82
2021/07/17 06:16:11;;;;;;;16.02;10.38;;;;;;;23.88;69.17;98790.57;2292270;78;21252;-80
2021/07/17 06:19:12;;;;;;;17.02;10.05;;;;;;;24.02;70.05;98796.17;2292542;78;21261;-85
2021/07/17 06:22:12;;;;;;;14.68;9.88;;;;;;;24.14;68.75;98792.51;2291849;78;20952;-81
2021/07/17 06:25:13;;;;;;;15.45;10.72;;;;;;;24.26;68.73;98800.44;2292702;78;20978;-82
2021/07/17 06:28:14;;;;;;;13.60;10.15;;;;;;;24.38;67.49;98809.29;2292432;78;20909;-83
2021/07/17 06:31:16;;;;;;;13.15;9.90;;;;;;;24.42;67.75;98811.35;2292580;78;20925;-82
2021/07/17 06:34:17;;;;;;;14.58;9.75;;;;;;;24.48;66.84;98810.21;2292740;77;20947;-82
2021/07/17 06:37:17;;;;;;;12.98;9.48;;;;;;;24.61;66.58;98806.91;2299337;77;20914;-82
2021/07/17 06:40:18;;;;;;;15.20;9.55;;;;;;;24.61;66.59;98816.26;2299683;77;20942;-81
2021/07/17 06:43:18;;;;;;;9.95;9.00;;;;;;;24.74;66.04;98823.23;2299403;77;20862;-82
2021/07/17 06:46:19;;;;;;;10.75;8.68;;;;;;;24.86;65.71;98823.14;2294015;77;20944;-82
2021/07/17 06:49:22;;;;;;;11.20;9.70;;;;;;;24.98;64.33;98831.48;2292297;78;20909;-81
2021/07/17 06:52:22;;;;;;;11.57;8.73;;;;;;;25.05;64.26;98833.39;2292017;78;20935;-84
2021/07/17 06:55:23;;;;;;;10.15;7.97;;;;;;;25.14;63.33;98830.75;2291961;78;20887;-82
2021/07/17 06:58:23;;;;;;;11.05;7.67;;;;;;;25.20;62.90;98831.36;2291598;78;20924;-81
2021/07/17 07:01:24;;;;;;;8.43;7.50;;;;;;;25.34;62.83;98822.69;2291401;78;21551;-81
2021/07/17 07:04:25;;;;;;;8.63;7.75;;;;;;;25.46;61.55;98826.56;2292250;78;20904;-79
2021/07/17 07:07:25;;;;;;;9.73;8.38;;;;;;;25.40;61.58;98823.72;2291924;78;20975;-78
2021/07/17 07:10:26;;;;;;;9.65;8.13;;;;;;;25.43;61.47;98826.72;2292032;78;20959;-80
2021/07/17 07:13:26;;;;;;;15.48;8.18;;;;;;;25.51;61.15;98823.20;2291600;78;21047;-79
2021/07/17 07:16:27;;;;;;;10.15;9.15;;;;;;;25.58;61.13;98817.47;2291575;78;20905;-81
2021/07/17 07:19:27;;;;;;;11.60;9.38;;;;;;;25.55;61.32;98817.63;2291228;78;21327;-80
2021/07/17 07:22:28;;;;;;;10.82;9.18;;;;;;;25.71;62.32;98822.64;2290232;78;20936;-81
2021/07/17 07:25:28;;;;;;;11.75;9.55;;;;;;;26.01;62.38;98823.40;2291437;78;20924;-80
2021/07/17 07:28:29;;;;;;;11.38;8.60;;;;;;;26.07;60.77;98820.41;2291741;78;20904;-80
2021/07/17 07:31:29;;;;;;;12.23;9.50;;;;;;;26.03;60.70;98814.35;2292869;78;20955;-80
2021/07/17 07:34:30;;;;;;;18.80;9.13;;;;;;;26.07;60.84;98819.55;2292925;78;20947;-81
2021/07/17 07:37:30;;;;;;;11.45;8.95;;;;;;;26.06;59.42;98804.44;2292748;78;20928;-80
2021/07/17 07:40:31;;;;;;;13.55;8.93;;;;;;;26.24;59.54;98816.86;2292859;78;20950;-80
2021/07/17 07:43:31;;;;;;;13.85;9.13;;;;;;;26.32;59.31;98815.55;2292691;78;20869;-81
2021/07/17 07:46:34;;;;;;;9.73;8.73;;;;;;;26.30;59.04;98811.19;2292536;78;20944;-80
2021/07/17 07:49:34;;;;;;;12.80;9.53;;;;;;;26.32;58.63;98811.53;2292379;78;20956;-80
2021/07/17 07:52:35;;;;;;;12.70;9.28;;;;;;;26.45;57.79;98800.17;2292226;78;20983;-80
2021/07/17 07:55:35;;;;;;;10.32;9.33;;;;;;;26.43;58.18;98814.98;2291546;78;20928;-80
2021/07/17 07:58:36;;;;;;;14.30;8.83;;;;;;;26.53;58.06;98797.48;2291249;78;21326;-79
2021/07/17 08:01:36;;;;;;;15.23;8.75;;;;;;;26.63;57.97;98800.05;2292406;78;20900;-79
2021/07/17 08:04:37;;;;;;;11.20;9.25;;;;;;;26.44;57.15;98806.00;2292170;78;20912;-79
2021/07/17 08:07:37;;;;;;;13.38;9.48;;;;;;;26.02;58.46;98799.72;2292755;78;21354;-81
2021/07/17 08:10:38;;;;;;;11.48;8.40;;;;;;;26.08;58.96;98810.58;2292591;78;20920;-79
2021/07/17 08:13:38;;;;;;;11.15;9.18;;;;;;;26.12;59.18;98810.81;2291968;78;20892;-80
2021/07/17 08:16:39;;;;;;;10.68;9.48;;;;;;;26.22;59.49;98814.27;2292010;78;20893;-81
2021/07/17 08:19:39;;;;;;;12.70;8.88;;;;;;;26.30;59.17;98815.20;2292306;78;20931;-81
2021/07/17 08:22:40;;;;;;;16.45;9.05;;;;;;;26.71;58.48;98817.04;2284640;78;21318;-80
2021/07/17 08:25:40;;;;;;;10.00;8.78;;;;;;;27.47;56.75;98825.36;2282585;78;20989;-81
2021/07/17 08:28:41;;;;;;;10.13;8.63;;;;;;;27.63;55.86;98828.92;2282537;78;20929;-80
2021/07/17 08:31:41;;;;;;;13.58;9.65;;;;;;;27.64;55.75;98833.34;2281879;78;20966;-83
2021/07/17 08:34:43;;;;;;;10.68;8.20;;;;;;;27.87;55.58;98826.19;2282156;78;20898;-82
2021/07/17 08:37:44;;;;;;;15.50;8.65;;;;;;;27.99;55.29;98819.70;2282220;77;20993;-81
2021/07/17 08:40:44;;;;;;;9.18;8.10;;;;;;;28.00;54.21;98814.73;2282100;78;20910;-81
2021/07/17 08:43:45;;;;;;;10.78;8.85;;;;;;;28.28;53.80;98818.86;2282306;78;20871;-81
2021/07/17 08:46:45;;;;;;;10.70;8.60;;;;;;;28.34;52.78;98821.17;2282074;78;20930;-80
2021/07/17 08:49:46;;;;;;;9.43;8.55;;;;;;;28.44;52.71;98818.78;2282160;78;20895;-80
2021/07/17 08:52:46;;;;;;;10.00;8.15;;;;;;;29.02;52.27;98821.44;2282006;78;20957;-81
2021/07/17 08:55:47;;;;;;;10.20;8.58;;;;;;;29.56;52.05;98818.02;2282199;78;20946;-85
2021/07/17 08:58:48;;;;;;;12.68;8.93;;;;;;;29.77;50.79;98827.35;2282714;78;20958;-83
2021/07/17 09:01:48;;;;;;;8.98;8.08;;;;;;;29.66;49.80;98818.66;2282972;77;21002;-82
2021/07/17 09:04:49;;;;;;;11.08;8.35;;;;;;;29.60;50.97;98825.78;2282249;78;20906;-83
2021/07/17 09:07:50;;;;;;;11.90;8.05;;;;;;;29.74;49.91;98827.08;2281808;78;20914;-83
2021/07/17 09:10:50;;;;;;;11.05;8.63;;;;;;;29.61;49.74;98823.95;2281973;77;20990;-83
2021/07/17 09:13:51;;;;;;;13.78;8.30;;;;;;;29.48;49.72;98822.56;2282379;78;20906;-83
2021/07/17 09:16:52;;;;;;;9.13;8.18;;;;;;;29.15;49.68;98818.83;2282587;78;21231;-83
2021/07/17 09:19:52;;;;;;;10.88;8.73;;;;;;;29.29;49.56;98814.77;2282735;78;20937;-82
2021/07/17 09:22:53;;;;;;;12.68;8.85;;;;;;;29.32;49.47;98815.05;2289589;78;20944;-80
2021/07/17 09:25:53;;;;;;;12.28;8.58;;;;;;;29.52;49.61;98816.02;2291883;78;20900;-81
2021/07/17 09:28:54;;;;;;;11.30;7.85;;;;;;;29.74;49.73;98816.80;2291754;78;21292;-81
2021/07/17 09:31:56;;;;;;;11.33;7.62;;;;;;;30.11;49.02;98813.86;2291321;78;21359;-81
2021/07/17 09:34:56;;;;;;;9.43;8.48;;;;;;;30.39;48.32;98812.36;2291444;78;21303;-82
2021/07/17 09:37:57;;;;;;;13.72;9.20;;;;;;;30.25;47.95;98812.42;2291661;78;20976;-78
2021/07/17 09:40:57;;;;;;;10.90;8.30;;;;;;;29.65;46.50;98818.27;2291800;78;20905;-80
2021/07/17 09:43:59;;;;;;;9.53;8.45;;;;;;;29.43;48.95;98817.93;2292328;78;21315;-84
2021/07/17 09:47:01;;;;;;;11.15;8.23;;;;;;;29.13;49.63;98821.61;2292122;78;20881;-82
2021/07/17 09:50:01;;;;;;;10.08;8.58;;;;;;;29.24;49.37;98812.00;2291909;78;20924;-83
2021/07/17 09:53:02;;;;;;;10.98;8.33;;;;;;;29.24;49.57;98816.03;2292169;78;20912;-83
2021/07/17 09:56:02;;;;;;;20.68;8.98;;;;;;;29.38;49.42;98809.27;2291954;78;20955;-82
2021/07/17 09:59:03;;;;;;;12.73;8.15;;;;;;;29.27;49.46;98815.83;2291278;78;20916;-82
2021/07/17 10:02:03;;;;;;;13.20;8.38;;;;;;;29.11;49.21;98809.23;2291304;78;20907;-82
2021/07/17 10:05:04;;;;;;;11.95;8.98;;;;;;;29.00;50.35;98809.06;2291468;78;20917;-82
2021/07/17 10:08:04;;;;;;;9.38;8.05;;;;;;;29.08;50.10;98808.09;2291664;78;21244;-82
2021/07/17 10:11:11;;;;;;;13.30;8.80;;;;;;;29.10;49.56;98816.44;2291757;78;20983;-82
2021/07/17 10:14:12;;;;;;;12.95;9.00;;;;;;;28.89;50.08;98807.06;2291646;78;20920;-83
2021/07/17 10:17:13;;;;;;;9.80;8.80;;;;;;;28.59;51.29;98804.89;2292183;78;20893;-81
2021/07/17 10:20:13;;;;;;;12.18;9.55;;;;;;;28.41;52.04;98809.09;2292184;78;20968;-81
2021/07/17 10:23:14;;;;;;;13.40;10.30;;;;;;;28.34;52.59;98805.54;2258822;78;20940;-81
2021/07/17 10:26:15;;;;;;;16.95;9.43;;;;;;;28.33;52.83;98807.84;2250179;78;20873;-81
2021/07/17 10:29:16;;;;;;;11.85;8.83;;;;;;;28.20;52.95;98803.66;2250214;78;20908;-81
2021/07/17 10:32:18;;;;;;;11.53;9.90;;;;;;;28.36;53.16;98803.63;2250211;79;20931;-84
2021/07/17 10:35:18;;;;;;;13.62;9.23;;;;;;;28.23;52.71;98804.37;2249960;79;20991;-81
2021/07/17 10:38:19;;;;;;;11.93;9.28;;;;;;;28.06;53.27;98799.61;2250143;78;20911;-83
2021/07/17 10:41:20;;;;;;;11.10;10.00;;;;;;;27.95;53.94;98795.36;2250585;79;20909;-83
2021/07/17 10:44:20;;;;;;;13.32;10.43;;;;;;;27.82;54.18;98797.43;2250030;79;20897;-81
2021/07/17 10:47:21;;;;;;;13.58;9.70;;;;;;;27.75;54.18;98797.41;2250000;78;21293;-81
2021/07/17 10:50:21;;;;;;;10.90;9.38;;;;;;;27.77;54.40;98793.30;2249696;78;20928;-80
2021/07/17 10:53:21;;;;;;;12.30;9.40;;;;;;;27.71;54.38;98801.19;2249989;78;20940;-79
2021/07/17 10:56:22;;;;;;;11.50;9.55;;;;;;;27.73;54.38;98801.96;2249477;79;20912;-80
2021/07/17 10:59:22;;;;;;;13.58;9.38;;;;;;;27.80;54.92;98802.02;2249796;78;20905;-82
2021/07/17 11:02:24;;;;;;;15.00;9.35;;;;;;;27.78;54.22;98802.59;2249534;78;20932;-81
2021/07/17 11:05:25;;;;;;;12.60;9.35;;;;;;;27.79;54.69;98797.61;2249840;78;20924;-82
2021/07/17 11:08:25;;;;;;;16.30;10.28;;;;;;;27.74;54.52;98796.98;2249461;78;20905;-80
2021/07/17 11:11:26;;;;;;;13.75;10.10;;;;;;;27.86;54.67;98796.77;2249362;78;20900;-84
2021/07/17 11:14:26;;;;;;;12.28;10.32;;;;;;;27.78;55.02;98794.55;2249642;79;20941;-81
2021/07/17 11:17:27;;;;;;;15.58;10.15;;;;;;;27.77;54.83;98789.27;2249386;79;20884;-81
2021/07/17 11:20:29;;;;;;;12.25;10.55;;;;;;;27.79;54.68;98786.02;2249403;78;21280;-82
2021/07/17 11:23:30;;;;;;;10.32;9.23;;;;;;;27.85;54.65;98784.31;2283515;78;20988;-81
2021/07/17 11:26:31;;;;;;;13.38;10.03;;;;;;;27.89;53.95;98778.67;2290780;78;21459;-82
2021/07/17 11:29:32;;;;;;;10.55;9.50;;;;;;;28.03;54.82;98777.84;2291415;78;20897;-81
2021/07/17 11:32:32;;;;;;;11.75;9.45;;;;;;;28.16;54.34;98780.66;2291432;78;20920;-80
2021/07/17 11:35:33;;;;;;;12.55;9.40;;;;;;;28.33;53.70;98774.28;2291273;78;21488;-82
2021/07/17 11:38:33;;;;;;;14.20;10.58;;;;;;;28.58;54.08;98771.80;2291297;78;20952;-82
2021/07/17 11:41:34;;;;;;;10.90;9.73;;;;;;;28.69;51.99;98767.13;2291405;78;20905;-80
2021/07/17 11:44:34;;;;;;;11.05;9.85;;;;;;;28.57;51.61;98778.61;2291485;78;20900;-81
2021/07/17 11:47:35;;;;;;;13.40;9.80;;;;;;;28.56;52.04;98772.38;2291529;78;21319;-81
2021/07/17 11:50:36;;;;;;;11.30;10.13;;;;;;;28.93;52.02;98766.95;2291488;78;21304;-82
2021/07/17 11:53:36;;;;;;;10.53;9.50;;;;;;;29.09;51.90;98766.34;2291451;78;20945;-81
2021/07/17 11:56:37;;;;;;;12.60;10.08;;;;;;;29.11;51.73;98761.73;2291474;78;20873;-81
2021/07/17 11:59:37;;;;;;;10.65;9.50;;;;;;;28.99;51.03;98758.48;2291361;78;20873;-81
2021/07/17 12:02:38;;;;;;;10.72;9.65;;;;;;;29.00;50.75;98756.19;2291572;78;20897;-82
2021/07/17 12:05:38;;;;;;;12.00;9.10;;;;;;;28.92;51.82;98752.27;2291575;78;20892;-82
2021/07/17 12:08:39;;;;;;;12.50;9.05;;;;;;;28.79;50.84;98757.05;2291618;78;21291;-81
2021/07/17 12:11:39;;;;;;;10.38;9.33;;;;;;;28.92;51.91;98754.47;2291115;78;20952;-80
2021/07/17 12:14:43;;;;;;;14.60;9.30;;;;;;;29.24;51.42;98758.23;2291470;78;20924;-81
2021/07/17 12:17:43;;;;;;;10.72;8.93;;;;;;;29.44;51.13;98751.95;2291966;77;21355;-79
2021/07/17 12:20:50;;;;;;;10.90;8.85;;;;;;;29.43;50.59;98743.98;2291767;78;20912;-80
2021/07/17 12:23:50;;;;;;;10.08;9.08;;;;;;;29.14;50.13;98741.37;2292080;77;20953;-80
2021/07/17 12:26:53;;;;;;;9.70;8.70;;;;;;;29.06;50.98;98741.48;2292247;78;20984;-80
2021/07/17 12:29:54;;;;;;;17.90;8.93;;;;;;;29.13;51.21;98740.12;2292123;78;20954;-81
2021/07/17 12:32:57;;;;;;;10.45;8.73;;;;;;;29.59;50.67;98736.65;2292383;78;20940;-81
2021/07/17 12:35:58;;;;;;;17.02;9.28;;;;;;;29.43;49.14;98726.52;2292119;77;20976;-80
2021/07/17 12:39:02;;;;;;;11.55;8.83;;;;;;;29.35;50.72;98727.47;2292422;78;20897;-79
2021/07/17 12:42:03;;;;;;;15.35;9.63;;;;;;;29.13;50.42;98734.75;2292278;78;20920;-81
2021/07/17 12:45:06;;;;;;;12.65;9.75;;;;;;;28.99;51.42;98726.73;2292315;78;21304;-82
2021/07/17 12:48:06;;;;;;;;;;;;;;;29.02;50.60;98726.05;2294689;78;20904;-80
2021/07/17 12:51:07;;;;;;;10.98;9.23;;;;;;;29.06;51.41;98723.54;2292397;78;20425;-79
2021/07/17 12:54:07;;;;;;;10.32;9.25;;;;;;;29.18;50.45;98722.73;2292039;78;21261;-80
2021/07/17 12:57:08;;;;;;;12.47;9.40;;;;;;;29.44;50.79;98714.79;2291858;78;21004;-81
2021/07/17 13:00:08;;;;;;;14.78;10.20;;;;;;;29.48;49.20;98712.31;2292157;78;20931;-80
2021/07/17 13:03:10;;;;;;;11.30;9.50;;;;;;;29.31;49.44;98713.37;2292270;78;21261;-82
2021/07/17 13:06:11;;;;;;;15.53;9.38;;;;;;;29.51;49.77;98705.37;2292715;78;21051;-80
2021/07/17 13:09:11;;;;;;;10.95;9.90;;;;;;;30.01;49.70;98702.39;2292237;78;21272;-80
2021/07/17 13:12:12;;;;;;;9.65;8.70;;;;;;;30.12;48.72;98698.50;2292153;78;20931;-79
2021/07/17 13:15:14;;;;;;;10.98;9.70;;;;;;;30.07;47.87;98701.99;2292135;78;20916;-81
2021/07/17 13:18:14;;;;;;;10.65;9.35;;;;;;;29.99;48.53;98694.42;2292290;78;21007;-79
2021/07/17 13:21:16;;;;;;;10.38;9.33;;;;;;;29.69;47.38;98695.20;2291532;78;20924;-79
2021/07/17 13:24:16;;;;;;;13.78;9.20;;;;;;;29.54;48.06;98694.41;2290592;77;20943;-79
2021/07/17 13:27:17;;;;;;;11.33;9.08;;;;;;;29.83;47.96;98697.80;2291150;78;20946;-80
2021/07/17 13:30:17;;;;;;;13.58;9.43;;;;;;;30.03;47.81;98687.03;2291241;78;20931;-81
2021/07/17 13:33:18;;;;;;;10.05;9.03;;;;;;;29.97;46.57;98685.59;2291312;78;20904;-81
2021/07/17 13:36:18;;;;;;;10.43;9.38;;;;;;;29.87;48.51;98685.00;2291579;78;20972;-82
2021/07/17 13:39:19;;;;;;;12.70;10.00;;;;;;;29.75;48.07;98681.33;2291973;78;21287;-81
2021/07/17 13:42:22;;;;;;;12.18;9.05;;;;;;;29.84;47.55;98682.52;2292329;78;20913;-81
2021/07/17 13:45:22;;;;;;;;;;;;;;;29.99;47.36;98666.65;2294445;78;20940;-81
2021/07/17 13:48:23;;;;;;;14.90;9.93;;;;;;;30.13;47.59;98669.75;2292291;78;20084;-81
2021/07/17 13:51:23;;;;;;;11.00;9.93;;;;;;;30.29;48.28;98662.30;2291819;78;20939;-80
2021/07/17 13:54:24;;;;;;;15.08;9.20;;;;;;;30.40;46.61;98655.20;2291971;78;20893;-80
2021/07/17 13:57:24;;;;;;;10.93;9.28;;;;;;;30.43;46.23;98653.64;2292024;78;20911;-81
2021/07/17 14:00:25;;;;;;;14.78;9.48;;;;;;;30.35;46.25;98649.30;2292183;78;20913;-81